Time;durP1;ratioP1;P1;durP2;ratioP2;P2;SDS_P1;SDS_P2;PMS_P1;PMS_P2;Temp;Humidity;BMP_temperature;BMP_pressure;BME280_temperature;BME280_humidity;BME280_pressure;Samples;Min_cycle;Max_cycle;Signal;HPM_P1;HPM_P2
2023/12/03 00:00:41;;;;;;;4.18;3.30;;;13.90;92.60;;;;;;5033183;28;20466;-43
2023/12/03 00:03:08;;;;;;;4.32;3.50;;;13.90;92.30;;;;;;5034206;28;20438;-44
2023/12/03 00:05:36;;;;;;;4.20;3.38;;;13.80;91.80;;;;;;5033106;28;20108;-44
2023/12/03 00:08:02;;;;;;;3.95;3.20;;;13.60;91.90;;;;;;5033980;28;20029;-43
2023/12/03 00:10:28;;;;;;;3.38;2.83;;;13.40;92.00;;;;;;5033155;28;20021;-43
2023/12/03 00:12:54;;;;;;;4.65;3.42;;;13.20;92.20;;;;;;5033459;28;20029;-44
2023/12/03 00:15:21;;;;;;;5.05;2.97;;;13.00;92.40;;;;;;5032166;28;20044;-45
2023/12/03 00:17:47;;;;;;;4.43;3.22;;;12.80;92.60;;;;;;5033044;28;20050;-44
2023/12/03 00:20:13;;;;;;;4.85;3.08;;;12.60;92.80;;;;;;5032682;28;20123;-44
2023/12/03 00:22:39;;;;;;;4.15;3.10;;;12.40;93.00;;;;;;5032995;28;20187;-43
2023/12/03 00:25:05;;;;;;;4.57;2.97;;;12.30;93.60;;;;;;5032649;28;20037;-44
2023/12/03 00:27:30;;;;;;;4.18;3.00;;;12.20;93.40;;;;;;5032423;28;20021;-45
2023/12/03 00:29:57;;;;;;;3.17;2.70;;;12.00;93.60;;;;;;5032570;28;20033;-45
2023/12/03 00:32:22;;;;;;;4.07;3.17;;;11.90;93.70;;;;;;5032599;28;20413;-44
2023/12/03 00:34:48;;;;;;;4.20;2.95;;;11.80;93.90;;;;;;5032592;28;20018;-45
2023/12/03 00:37:14;;;;;;;3.70;2.80;;;11.70;94.00;;;;;;5032603;28;20095;-43
2023/12/03 00:39:39;;;;;;;3.22;2.78;;;11.60;94.10;;;;;;5033115;28;20455;-44
2023/12/03 00:42:05;;;;;;;4.43;3.10;;;11.50;94.20;;;;;;5032770;28;20022;-45
2023/12/03 00:44:30;;;;;;;4.05;3.10;;;11.40;94.30;;;;;;5032312;28;20022;-44
2023/12/03 00:46:56;;;;;;;4.47;3.20;;;11.30;94.50;;;;;;5032197;28;20025;-45
2023/12/03 00:49:22;;;;;;;3.92;3.03;;;11.20;94.60;;;;;;5033257;28;20053;-45
2023/12/03 00:51:47;;;;;;;3.30;2.90;;;11.20;94.70;;;;;;5033275;28;20022;-45
2023/12/03 00:54:13;;;;;;;3.47;2.92;;;11.10;94.80;;;;;;5032030;28;20021;-43
2023/12/03 00:56:38;;;;;;;4.25;3.10;;;11.00;94.90;;;;;;5032121;28;20593;-43
2023/12/03 00:59:04;;;;;;;3.58;2.85;;;11.00;95.00;;;;;;5032641;28;20025;-45
2023/12/03 01:01:29;;;;;;;4.35;3.22;;;10.90;95.10;;;;;;5032468;28;20490;-42
2023/12/03 01:03:56;;;;;;;3.45;2.70;;;10.90;95.20;;;;;;5032671;28;20109;-43
2023/12/03 01:06:21;;;;;;;4.18;2.88;;;10.80;95.20;;;;;;5032523;28;20045;-45
2023/12/03 01:08:47;;;;;;;3.38;2.83;;;10.80;95.30;;;;;;5031885;28;20022;-42
2023/12/03 01:11:13;;;;;;;4.03;3.08;;;10.70;95.30;;;;;;5031797;28;20061;-45
2023/12/03 01:13:39;;;;;;;3.65;2.75;;;10.70;95.40;;;;;;5031801;28;20040;-45
2023/12/03 01:16:05;;;;;;;4.18;3.22;;;10.60;95.50;;;;;;5031730;28;20471;-45
2023/12/03 01:18:30;;;;;;;3.85;2.88;;;10.60;95.50;;;;;;5031666;28;20029;-45
2023/12/03 01:20:56;;;;;;;4.03;3.10;;;10.50;95.60;;;;;;5031801;28;20430;-45
2023/12/03 01:23:21;;;;;;;4.32;2.67;;;10.50;95.70;;;;;;5031833;28;20467;-44
2023/12/03 01:25:47;;;;;;;4.43;3.17;;;10.50;95.80;;;;;;5032303;28;20116;-45
2023/12/03 01:28:13;;;;;;;3.17;2.45;;;10.40;95.90;;;;;;5033023;28;20391;-44
2023/12/03 01:30:39;;;;;;;4.10;2.70;;;10.40;95.90;;;;;;5033013;28;20071;-43
2023/12/03 01:33:04;;;;;;;3.28;2.67;;;10.40;96.00;;;;;;5032011;28;20077;-44
2023/12/03 01:35:30;;;;;;;3.20;2.67;;;10.40;96.00;;;;;;5032163;28;20093;-43
2023/12/03 01:37:55;;;;;;;3.47;2.85;;;10.50;96.00;;;;;;5033107;28;20033;-45
2023/12/03 01:40:21;;;;;;;2.90;2.60;;;10.50;96.00;;;;;;5031520;28;20040;-45
2023/12/03 01:42:46;;;;;;;3.17;2.60;;;10.50;95.90;;;;;;5030608;28;20033;-44
2023/12/03 01:45:12;;;;;;;4.03;2.90;;;10.50;95.90;;;;;;5031482;28;20053;-44
2023/12/03 01:47:38;;;;;;;3.33;2.80;;;10.60;95.80;;;;;;5031224;28;20063;-42
2023/12/03 01:50:08;;;;;;;3.75;3.10;;;10.60;95.80;;;;;;5031863;28;20025;-44
2023/12/03 01:52:37;;;;;;;3.85;3.00;;;10.60;95.70;;;;;;5031842;28;20075;-45
2023/12/03 01:55:03;;;;;;;3.33;2.72;;;10.70;95.60;;;;;;5031233;28;20025;-43
2023/12/03 01:57:30;;;;;;;3.35;2.83;;;10.70;95.60;;;;;;5031344;28;20407;-43
2023/12/03 01:59:55;;;;;;;3.85;3.05;;;10.70;95.60;;;;;;5031178;28;20029;-45
2023/12/03 02:02:21;;;;;;;4.03;3.05;;;10.70;95.60;;;;;;5031256;28;20038;-43
2023/12/03 02:04:47;;;;;;;4.38;3.00;;;10.70;95.50;;;;;;5032164;28;20071;-45
2023/12/03 02:07:13;;;;;;;2.88;2.50;;;10.70;95.60;;;;;;5035362;28;20021;-44
2023/12/03 02:09:40;;;;;;;3.17;2.58;;;10.70;95.50;;;;;;5035585;28;20144;-44
2023/12/03 02:12:06;;;;;;;3.33;2.78;;;10.70;95.60;;;;;;5035244;28;20487;-44
2023/12/03 02:14:31;;;;;;;3.33;2.47;;;10.70;95.60;;;;;;5035206;28;20083;-43
2023/12/03 02:16:57;;;;;;;3.30;2.60;;;10.70;95.60;;;;;;5035766;28;20037;-45
2023/12/03 02:19:22;;;;;;;3.60;2.88;;;10.70;95.60;;;;;;5035007;28;20049;-43
2023/12/03 02:21:48;;;;;;;3.55;2.90;;;10.60;95.50;;;;;;5035208;28;20148;-45
2023/12/03 02:24:14;;;;;;;4.10;2.97;;;10.60;95.60;;;;;;5035222;28;20037;-43
2023/12/03 02:26:39;;;;;;;4.28;3.10;;;10.60;95.60;;;;;;5034628;28;20036;-45
2023/12/03 02:29:05;;;;;;;4.93;3.00;;;10.60;95.90;;;;;;5034715;28;20017;-45
2023/12/03 02:31:31;;;;;;;4.40;2.95;;;10.60;95.60;;;;;;5035146;28;20052;-43
2023/12/03 02:34:11;;;;;;;2.88;2.47;;;10.50;95.60;;;;;;5035202;28;20053;-45
2023/12/03 02:36:37;;;;;;;3.38;2.83;;;10.50;95.60;;;;;;5035679;28;20040;-43
2023/12/03 02:39:03;;;;;;;4.53;3.05;;;10.50;95.70;;;;;;5034622;28;20026;-43
2023/12/03 02:41:29;;;;;;;4.20;3.08;;;10.50;95.70;;;;;;5034672;28;20025;-42
2023/12/03 02:43:54;;;;;;;4.28;3.25;;;10.50;95.70;;;;;;5034553;28;20036;-43
2023/12/03 02:46:20;;;;;;;4.05;3.17;;;10.50;95.80;;;;;;5034622;28;20036;-43
2023/12/03 02:48:46;;;;;;;3.45;2.95;;;10.40;95.70;;;;;;5034702;28;20545;-42
2023/12/03 02:51:11;;;;;;;4.35;2.92;;;10.40;95.80;;;;;;5034868;28;20460;-40
2023/12/03 02:53:38;;;;;;;3.38;2.95;;;10.40;96.10;;;;;;5034545;28;20021;-43
2023/12/03 02:56:04;;;;;;;3.33;2.72;;;10.40;95.80;;;;;;5034404;28;20040;-43
2023/12/03 02:58:30;;;;;;;3.58;2.85;;;10.30;95.80;;;;;;5035166;28;20026;-44
2023/12/03 03:00:55;;;;;;;3.92;3.53;;;10.30;95.80;;;;;;5034728;28;20033;-45
2023/12/03 03:03:21;;;;;;;4.63;3.90;;;10.30;96.00;;;;;;5034365;28;20061;-45
2023/12/03 03:05:46;;;;;;;4.72;3.45;;;10.30;96.70;;;;;;5034873;28;20029;-45
2023/12/03 03:08:12;;;;;;;4.90;3.47;;;10.60;96.60;;;;;;5034493;28;20026;-45
2023/12/03 03:10:39;;;;;;;3.72;3.03;;;11.00;96.30;;;;;;5035018;28;20037;-45
2023/12/03 03:13:04;;;;;;;3.78;2.97;;;11.60;95.70;;;;;;5034642;28;20028;-43
2023/12/03 03:15:30;;;;;;;3.95;3.30;;;12.20;94.90;;;;;;5033886;28;20026;-44
2023/12/03 03:17:56;;;;;;;3.80;3.15;;;12.80;94.00;;;;;;5034537;28;20054;-45
2023/12/03 03:20:22;;;;;;;4.75;3.70;;;13.30;92.70;;;;;;5033941;28;20040;-43
2023/12/03 03:22:49;;;;;;;4.47;3.60;;;13.50;92.00;;;;;;5033886;28;20148;-45
2023/12/03 03:25:15;;;;;;;4.13;3.25;;;13.40;91.70;;;;;;5033603;28;20060;-44
2023/12/03 03:27:40;;;;;;;4.38;3.10;;;13.30;91.70;;;;;;5033949;28;20021;-44
2023/12/03 03:30:07;;;;;;;4.47;3.42;;;13.10;91.70;;;;;;5034281;28;20452;-44
2023/12/03 03:32:33;;;;;;;4.32;3.28;;;12.90;91.80;;;;;;5033764;28;20018;-44
2023/12/03 03:34:58;;;;;;;4.95;3.30;;;12.80;92.00;;;;;;5033837;28;20025;-43
2023/12/03 03:37:24;;;;;;;5.35;3.70;;;12.70;92.20;;;;;;5034105;28;20090;-42
2023/12/03 03:39:50;;;;;;;5.15;3.88;;;12.50;92.40;;;;;;5033555;28;20435;-44
2023/12/03 03:42:15;;;;;;;4.45;3.20;;;12.30;92.50;;;;;;5033856;28;20059;-44
2023/12/03 03:44:41;;;;;;;3.58;2.85;;;12.20;92.60;;;;;;5033712;28;20112;-45
2023/12/03 03:47:07;;;;;;;4.22;3.30;;;12.10;92.70;;;;;;5033619;28;20072;-43
2023/12/03 03:49:33;;;;;;;4.00;3.40;;;12.00;92.90;;;;;;5033446;28;20104;-44
2023/12/03 03:51:59;;;;;;;4.80;3.33;;;11.90;93.00;;;;;;5033643;28;20055;-45
2023/12/03 03:54:25;;;;;;;3.80;3.33;;;11.70;93.20;;;;;;5033846;28;20025;-43
2023/12/03 03:56:51;;;;;;;4.45;3.28;;;11.70;93.30;;;;;;5033240;28;20040;-43
2023/12/03 03:59:16;;;;;;;5.03;3.17;;;11.60;93.50;;;;;;5033096;28;20360;-45
2023/12/03 04:01:43;;;;;;;4.63;3.50;;;11.50;93.60;;;;;;5033793;28;20030;-43
2023/12/03 04:04:09;;;;;;;3.85;3.25;;;11.40;93.70;;;;;;5034299;28;20030;-44
2023/12/03 04:06:46;;;;;;;4.05;3.30;;;11.30;93.80;;;;;;5033957;28;20032;-44
2023/12/03 04:09:12;;;;;;;4.88;3.47;;;11.20;93.90;;;;;;5033686;28;20171;-43
2023/12/03 04:11:42;;;;;;;4.07;3.00;;;11.20;94.00;;;;;;5033455;28;20383;-45
2023/12/03 04:14:09;;;;;;;5.40;3.97;;;11.10;94.10;;;;;;5033404;28;20064;-45
2023/12/03 04:16:35;;;;;;;3.80;3.10;;;11.00;94.10;;;;;;5032852;28;20037;-43
2023/12/03 04:19:01;;;;;;;4.55;3.67;;;11.00;94.20;;;;;;5032707;28;20036;-43
2023/12/03 04:21:26;;;;;;;4.53;3.45;;;10.90;94.30;;;;;;5032753;28;20029;-43
2023/12/03 04:23:52;;;;;;;5.68;3.80;;;10.90;94.40;;;;;;5033710;28;20100;-44
2023/12/03 04:26:18;;;;;;;4.63;3.75;;;10.80;94.40;;;;;;5032903;28;20057;-46
2023/12/03 04:28:43;;;;;;;4.28;3.80;;;10.80;94.50;;;;;;5032108;28;20383;-43
2023/12/03 04:31:21;;;;;;;5.22;3.80;;;10.70;94.50;;;;;;5033116;28;20026;-45
2023/12/03 04:33:50;;;;;;;4.82;3.75;;;10.70;94.90;;;;;;5033291;28;20083;-43
2023/12/03 04:36:17;;;;;;;3.90;3.50;;;10.60;94.60;;;;;;5033146;28;20025;-45
2023/12/03 04:38:43;;;;;;;4.93;3.67;;;10.60;94.70;;;;;;5032584;28;20472;-43
2023/12/03 04:41:08;;;;;;;5.35;4.15;;;10.60;94.70;;;;;;5032413;28;20565;-44
2023/12/03 04:43:34;;;;;;;3.95;3.47;;;10.50;94.70;;;;;;5033380;28;20083;-45
2023/12/03 04:46:06;;;;;;;6.63;4.05;;;10.50;94.70;;;;;;5032676;28;20025;-45
2023/12/03 04:48:34;;;;;;;5.30;3.83;;;10.40;94.70;;;;;;5032523;28;20025;-43
2023/12/03 04:51:00;;;;;;;5.10;3.72;;;10.40;94.80;;;;;;5033252;28;20024;-43
2023/12/03 04:53:25;;;;;;;5.00;3.60;;;10.30;94.80;;;;;;5032683;28;20017;-44
2023/12/03 04:55:51;;;;;;;6.30;4.25;;;10.40;94.90;;;;;;5032478;28;20026;-43
2023/12/03 04:58:17;;;;;;;4.65;3.67;;;10.30;94.90;;;;;;5032818;28;20025;-45
2023/12/03 05:00:42;;;;;;;5.97;4.00;;;10.30;95.00;;;;;;5031958;28;20025;-45
2023/12/03 05:03:08;;;;;;;5.50;4.43;;;10.20;95.00;;;;;;5032053;28;20384;-44
2023/12/03 05:05:33;;;;;;;6.63;4.13;;;10.20;95.70;;;;;;5032311;28;20052;-45
2023/12/03 05:07:59;;;;;;;4.75;3.92;;;10.40;95.80;;;;;;5032332;28;20025;-43
2023/12/03 05:10:25;;;;;;;6.65;4.32;;;10.80;95.30;;;;;;5031848;28;20025;-44
2023/12/03 05:12:50;;;;;;;5.38;4.50;;;11.30;94.70;;;;;;5031962;28;20026;-45
2023/12/03 05:15:16;;;;;;;5.18;4.00;;;11.90;94.10;;;;;;5031683;28;20071;-44
2023/12/03 05:17:42;;;;;;;5.95;4.00;;;12.50;93.30;;;;;;5032033;28;20029;-45
2023/12/03 05:20:08;;;;;;;6.90;5.03;;;13.10;92.10;;;;;;5031799;28;20068;-42
2023/12/03 05:22:33;;;;;;;5.03;4.28;;;13.20;91.40;;;;;;5031656;28;20123;-43
2023/12/03 05:24:59;;;;;;;6.13;4.20;;;13.20;91.10;;;;;;5031592;28;20483;-45
2023/12/03 05:27:24;;;;;;;4.85;3.78;;;13.10;91.00;;;;;;5031570;28;20062;-45
2023/12/03 05:29:50;;;;;;;5.25;4.38;;;12.90;91.10;;;;;;5031710;28;20510;-45
2023/12/03 05:32:16;;;;;;;5.30;3.72;;;12.70;91.20;;;;;;5031609;28;20484;-45
2023/12/03 05:34:45;;;;;;;4.97;3.72;;;12.60;91.70;;;;;;5031746;28;20379;-45
2023/12/03 05:37:10;;;;;;;5.30;4.38;;;12.40;91.50;;;;;;5031416;28;20021;-43
2023/12/03 05:39:40;;;;;;;4.82;4.00;;;12.30;91.60;;;;;;5030940;28;20079;-43
2023/12/03 05:42:05;;;;;;;4.80;3.40;;;12.10;91.80;;;;;;5031555;28;20102;-42
2023/12/03 05:44:31;;;;;;;5.28;3.78;;;12.00;92.00;;;;;;5032113;28;20367;-43
2023/12/03 05:46:57;;;;;;;4.43;3.40;;;11.90;92.00;;;;;;5031305;28;20037;-44
2023/12/03 05:49:22;;;;;;;5.50;3.80;;;11.80;92.10;;;;;;5031856;28;20021;-45
2023/12/03 05:51:49;;;;;;;4.35;3.67;;;11.70;92.20;;;;;;5031400;28;20100;-45
2023/12/03 05:54:15;;;;;;;5.53;3.70;;;11.60;92.30;;;;;;5031310;28;20022;-45
2023/12/03 05:56:41;;;;;;;3.80;3.20;;;11.50;92.30;;;;;;5031231;28;20095;-45
2023/12/03 05:59:06;;;;;;;5.13;3.70;;;11.40;92.50;;;;;;5031690;28;20430;-45
2023/12/03 06:01:32;;;;;;;5.35;3.67;;;11.30;92.70;;;;;;5031701;28;20418;-44
2023/12/03 06:03:59;;;;;;;5.35;3.72;;;11.20;92.80;;;;;;5031245;28;20521;-45
2023/12/03 06:06:24;;;;;;;4.32;3.58;;;11.10;93.10;;;;;;5031053;28;20471;-43
2023/12/03 06:08:50;;;;;;;4.78;3.60;;;11.10;92.90;;;;;;5031019;28;20029;-43
2023/12/03 06:11:16;;;;;;;4.43;3.38;;;11.00;93.00;;;;;;5031086;28;20109;-45
2023/12/03 06:13:41;;;;;;;4.72;3.60;;;10.90;93.10;;;;;;5032226;28;20022;-45
2023/12/03 06:16:07;;;;;;;5.47;3.70;;;10.80;93.20;;;;;;5031872;28;20112;-45
2023/12/03 06:18:33;;;;;;;4.72;3.42;;;10.80;93.30;;;;;;5031010;28;20041;-45
2023/12/03 06:20:59;;;;;;;3.40;3.10;;;10.80;93.40;;;;;;5031494;28;20104;-45
2023/12/03 06:23:26;;;;;;;5.07;3.38;;;10.70;93.40;;;;;;5031247;28;20446;-45
2023/12/03 06:25:52;;;;;;;4.30;3.70;;;10.60;93.50;;;;;;5030976;28;20041;-44
2023/12/03 06:28:17;;;;;;;4.55;3.78;;;10.60;93.80;;;;;;5031380;28;20364;-43
2023/12/03 06:30:43;;;;;;;4.03;3.33;;;10.50;93.40;;;;;;5030947;28;20018;-43
2023/12/03 06:33:08;;;;;;;4.82;3.80;;;10.50;93.50;;;;;;5031568;28;20072;-44
2023/12/03 06:35:34;;;;;;;5.13;3.72;;;10.50;93.60;;;;;;5031089;28;20042;-44
2023/12/03 06:38:00;;;;;;;7.15;3.30;;;10.40;93.70;;;;;;5032170;28;20087;-44
2023/12/03 06:40:25;;;;;;;4.68;3.58;;;10.40;93.70;;;;;;5031476;28;20029;-43
2023/12/03 06:42:51;;;;;;;4.78;3.50;;;10.40;93.80;;;;;;5031143;28;20113;-45
2023/12/03 06:45:16;;;;;;;3.97;3.38;;;10.30;93.80;;;;;;5030798;28;20030;-45
2023/12/03 06:47:42;;;;;;;4.95;3.88;;;10.20;93.90;;;;;;5031263;28;20018;-42
2023/12/03 06:50:08;;;;;;;4.93;3.80;;;10.20;93.90;;;;;;5031805;28;20455;-44
2023/12/03 06:52:33;;;;;;;4.82;3.67;;;10.20;93.90;;;;;;5034376;28;20017;-44
2023/12/03 06:54:59;;;;;;;5.57;3.70;;;10.20;94.00;;;;;;5034419;28;20029;-43
2023/12/03 06:57:24;;;;;;;4.63;3.80;;;10.10;93.90;;;;;;5034385;28;20418;-42
2023/12/03 06:59:50;;;;;;;5.70;3.95;;;10.10;94.00;;;;;;5034345;28;20057;-45
2023/12/03 07:02:16;;;;;;;4.45;3.50;;;10.10;94.10;;;;;;5034394;28;20028;-43
2023/12/03 07:04:41;;;;;;;4.95;3.78;;;10.10;94.10;;;;;;5034703;28;20379;-45
2023/12/03 07:07:07;;;;;;;5.00;3.95;;;10.00;94.10;;;;;;5034428;28;20033;-40
2023/12/03 07:09:33;;;;;;;6.00;4.50;;;10.00;94.10;;;;;;5034422;28;20048;-45
2023/12/03 07:11:58;;;;;;;6.47;4.90;;;10.00;94.10;;;;;;5034185;28;20033;-43
2023/12/03 07:14:24;;;;;;;6.47;3.90;;;10.00;94.00;;;;;;5034105;28;20025;-44
2023/12/03 07:16:49;;;;;;;6.72;4.68;;;10.00;94.00;;;;;;5034651;28;20156;-45
2023/12/03 07:19:15;;;;;;;6.72;4.72;;;10.00;94.00;;;;;;5033881;28;20099;-44
2023/12/03 07:21:40;;;;;;;6.57;5.18;;;10.00;93.90;;;;;;5034545;28;20067;-45
2023/12/03 07:24:07;;;;;;;7.15;4.88;;;10.00;93.80;;;;;;5034323;28;20136;-44
2023/12/03 07:26:33;;;;;;;5.22;4.30;;;10.00;93.80;;;;;;5033649;28;20028;-44
2023/12/03 07:28:59;;;;;;;6.18;4.75;;;10.00;93.90;;;;;;5034045;28;20017;-44
2023/12/03 07:31:24;;;;;;;7.82;5.47;;;10.10;93.90;;;;;;5033875;28;20053;-44
2023/12/03 07:33:50;;;;;;;7.65;5.07;;;10.10;93.90;;;;;;5034378;28;20049;-45
2023/12/03 07:36:16;;;;;;;8.52;5.63;;;10.10;93.90;;;;;;5033614;28;20037;-44
2023/12/03 07:38:41;;;;;;;6.90;4.90;;;10.10;93.90;;;;;;5034232;28;20021;-42
2023/12/03 07:41:11;;;;;;;8.68;5.65;;;10.20;93.90;;;;;;5033568;28;20130;-44
2023/12/03 07:43:37;;;;;;;8.05;5.40;;;10.20;93.80;;;;;;5034017;28;20031;-43
2023/12/03 07:46:02;;;;;;;8.65;6.20;;;10.20;93.70;;;;;;5033440;28;20026;-42
2023/12/03 07:48:28;;;;;;;9.82;5.65;;;10.30;93.70;;;;;;5033325;28;20030;-44
2023/12/03 07:50:54;;;;;;;9.55;6.10;;;10.30;93.70;;;;;;5033767;28;20029;-43
2023/12/03 07:53:19;;;;;;;8.05;5.90;;;10.40;93.60;;;;;;5033756;28;20018;-43
2023/12/03 07:55:46;;;;;;;9.88;5.95;;;10.40;93.50;;;;;;5033627;28;20026;-44
2023/12/03 07:58:12;;;;;;;9.88;6.60;;;10.40;93.50;;;;;;5033254;28;20025;-43
2023/12/03 08:00:39;;;;;;;12.43;7.32;;;10.50;93.40;;;;;;5025189;28;20049;-43
2023/12/03 08:03:04;;;;;;;9.57;6.68;;;10.50;93.70;;;;;;5012576;28;20037;-44
2023/12/03 08:05:30;;;;;;;10.63;6.80;;;10.60;93.40;;;;;;5013266;28;20026;-44
2023/12/03 08:07:56;;;;;;;10.00;5.93;;;10.60;93.40;;;;;;5013245;28;20022;-42
2023/12/03 08:10:22;;;;;;;8.73;6.25;;;10.70;93.40;;;;;;5013270;28;20022;-43
2023/12/03 08:12:48;;;;;;;9.95;6.30;;;10.80;93.50;;;;;;5013323;28;20025;-43
2023/12/03 08:15:14;;;;;;;9.52;6.38;;;10.80;93.50;;;;;;5013599;28;20071;-42
2023/12/03 08:17:40;;;;;;;8.98;5.97;;;10.90;93.50;;;;;;5012855;28;20029;-44
2023/12/03 08:20:06;;;;;;;8.88;6.05;;;10.90;93.50;;;;;;5012989;28;20026;-44
2023/12/03 08:22:32;;;;;;;8.57;5.88;;;10.90;93.50;;;;;;5013010;28;20045;-45
2023/12/03 08:24:58;;;;;;;9.70;6.22;;;11.00;93.50;;;;;;5013563;28;20030;-43
2023/12/03 08:27:23;;;;;;;9.07;6.00;;;11.00;93.50;;;;;;5012887;28;20028;-45
2023/12/03 08:29:49;;;;;;;8.05;5.53;;;11.10;93.40;;;;;;5013039;28;20045;-43
2023/12/03 08:32:15;;;;;;;8.18;5.65;;;11.20;93.50;;;;;;5012902;28;20034;-43
2023/12/03 08:34:40;;;;;;;8.30;6.00;;;11.30;93.40;;;;;;5011559;28;20026;-44
2023/12/03 08:37:06;;;;;;;9.23;5.45;;;11.30;93.30;;;;;;5012698;28;20052;-43
2023/12/03 08:39:32;;;;;;;9.00;5.78;;;11.40;93.30;;;;;;5012631;28;20026;-44
2023/12/03 08:41:57;;;;;;;8.38;5.55;;;11.40;93.30;;;;;;5013365;28;20038;-45
2023/12/03 08:44:23;;;;;;;9.73;6.28;;;11.50;93.20;;;;;;5013118;28;20026;-44
2023/12/03 08:46:49;;;;;;;10.40;5.75;;;11.50;93.20;;;;;;5012940;28;20033;-43
2023/12/03 08:49:15;;;;;;;8.65;6.15;;;11.60;93.20;;;;;;5012884;28;20033;-45
2023/12/03 08:51:40;;;;;;;8.27;5.85;;;11.60;93.10;;;;;;5012545;28;20502;-43
2023/12/03 08:54:06;;;;;;;8.48;5.65;;;11.70;93.10;;;;;;5012521;28;20124;-45
2023/12/03 08:56:32;;;;;;;8.93;6.05;;;11.70;93.10;;;;;;5012443;28;20034;-42
2023/12/03 08:58:57;;;;;;;10.43;6.43;;;11.80;93.00;;;;;;5012262;28;20036;-44
2023/12/03 09:01:23;;;;;;;11.23;6.68;;;11.80;93.00;;;;;;5012451;28;20033;-44
2023/12/03 09:03:49;;;;;;;10.20;6.45;;;11.80;93.00;;;;;;5012616;28;20597;-44
2023/12/03 09:06:15;;;;;;;11.45;6.82;;;11.90;93.00;;;;;;5012188;28;20028;-43
2023/12/03 09:08:41;;;;;;;8.95;6.28;;;11.90;93.00;;;;;;5012440;28;20387;-45
2023/12/03 09:11:07;;;;;;;8.48;6.07;;;12.00;93.00;;;;;;5012511;28;20109;-45
2023/12/03 09:13:33;;;;;;;14.77;10.23;;;12.00;92.90;;;;;;5011976;28;20435;-41
2023/12/03 09:15:58;;;;;;;24.05;13.35;;;12.10;91.90;;;;;;5012430;28;20044;-43
2023/12/03 09:18:24;;;;;;;22.83;12.65;;;12.00;88.40;;;;;;5012674;28;20036;-44
2023/12/03 09:20:50;;;;;;;23.17;12.70;;;12.00;87.10;;;;;;5012924;28;20030;-44
2023/12/03 09:23:17;;;;;;;18.33;11.73;;;12.00;87.10;;;;;;5012198;28;20056;-43
2023/12/03 09:25:43;;;;;;;22.23;12.13;;;12.00;87.50;;;;;;5012189;28;20058;-43
2023/12/03 09:28:10;;;;;;;17.48;11.63;;;12.00;88.20;;;;;;5012098;28;20072;-45
2023/12/03 09:30:36;;;;;;;17.45;10.98;;;12.10;88.90;;;;;;5011978;28;20036;-43
2023/12/03 09:33:01;;;;;;;18.05;11.55;;;12.10;89.40;;;;;;5012254;28;20022;-44
2023/12/03 09:35:30;;;;;;;17.52;11.23;;;12.20;89.80;;;;;;5011868;28;20034;-44
2023/12/03 09:37:56;;;;;;;19.40;11.25;;;12.20;90.00;;;;;;5012414;28;20027;-41
2023/12/03 09:40:23;;;;;;;18.02;10.77;;;12.30;90.20;;;;;;5012198;28;20057;-42
2023/12/03 09:42:50;;;;;;;19.60;11.20;;;12.40;90.30;;;;;;5012633;28;20025;-44
2023/12/03 09:45:19;;;;;;;17.83;10.70;;;12.40;90.40;;;;;;5011803;28;20025;-44
2023/12/03 09:47:53;;;;;;;18.75;11.15;;;12.50;90.50;;;;;;5011566;28;20026;-42
2023/12/03 09:50:20;;;;;;;17.70;11.27;;;12.50;90.50;;;;;;5012698;28;20026;-42
2023/12/03 09:52:50;;;;;;;17.42;10.35;;;12.60;90.60;;;;;;5013289;28;20037;-44
2023/12/03 09:55:18;;;;;;;19.10;11.73;;;12.60;90.70;;;;;;5011835;28;20168;-44
2023/12/03 09:57:47;;;;;;;15.57;11.23;;;12.70;90.70;;;;;;5012602;28;20033;-43
2023/12/03 10:00:13;;;;;;;17.30;11.18;;;12.70;90.70;;;;;;5011526;28;20104;-43
2023/12/03 10:02:39;;;;;;;15.13;10.85;;;12.80;90.70;;;;;;5012314;28;20049;-44
2023/12/03 10:05:05;;;;;;;17.52;10.48;;;12.90;90.80;;;;;;5011769;28;20026;-43
2023/12/03 10:07:31;;;;;;;16.80;10.07;;;12.90;90.80;;;;;;5011805;28;20385;-43
2023/12/03 10:09:58;;;;;;;16.58;10.50;;;12.90;90.80;;;;;;5012001;28;20033;-44
2023/12/03 10:12:32;;;;;;;13.25;9.38;;;13.00;90.80;;;;;;5011879;28;20018;-43
2023/12/03 10:14:58;;;;;;;16.45;10.18;;;13.00;90.90;;;;;;5012161;28;20026;-44
2023/12/03 10:17:24;;;;;;;13.85;8.88;;;13.10;90.90;;;;;;5011692;28;20396;-44
2023/12/03 10:19:49;;;;;;;14.07;9.30;;;13.10;90.90;;;;;;5011982;28;20029;-43
2023/12/03 10:22:15;;;;;;;16.10;9.82;;;13.20;90.90;;;;;;5012032;28;20518;-43
2023/12/03 10:24:50;;;;;;;14.48;9.15;;;13.20;90.90;;;;;;5011951;28;20041;-43
2023/12/03 10:27:15;;;;;;;14.75;9.05;;;13.30;90.90;;;;;;5015351;28;20092;-44
2023/12/03 10:29:41;;;;;;;14.38;9.40;;;13.30;91.00;;;;;;5015299;28;20426;-44
2023/12/03 10:32:10;;;;;;;13.43;9.02;;;13.40;90.90;;;;;;5015523;28;20472;-44
2023/12/03 10:34:42;;;;;;;13.00;8.77;;;13.40;90.90;;;;;;5015895;28;20037;-42
2023/12/03 10:37:08;;;;;;;14.52;9.05;;;13.50;90.90;;;;;;5015410;28;20124;-43
2023/12/03 10:39:37;;;;;;;12.27;8.80;;;13.50;90.80;;;;;;5015338;28;20100;-44
2023/12/03 10:42:02;;;;;;;14.05;8.48;;;13.60;90.90;;;;;;5015099;28;20521;-44
2023/12/03 10:44:30;;;;;;;13.63;8.13;;;13.60;90.90;;;;;;5015362;28;20040;-43
2023/12/03 10:46:57;;;;;;;12.00;7.80;;;13.60;90.80;;;;;;5014943;28;20484;-44
2023/12/03 10:49:24;;;;;;;11.10;7.60;;;13.70;90.90;;;;;;5015058;28;20079;-44
2023/12/03 10:51:55;;;;;;;13.30;8.63;;;13.70;90.80;;;;;;5014710;28;20022;-44
2023/12/03 10:54:21;;;;;;;10.98;7.70;;;13.70;90.80;;;;;;5015481;28;20025;-44
2023/12/03 10:56:54;;;;;;;11.95;7.65;;;13.80;90.80;;;;;;5015726;28;20029;-42
2023/12/03 10:59:23;;;;;;;11.15;7.00;;;13.80;90.70;;;;;;5014607;28;20018;-44
2023/12/03 11:01:54;;;;;;;11.52;7.38;;;13.90;90.70;;;;;;5014939;28;20152;-43
2023/12/03 11:04:52;;;;;;;10.25;6.93;;;14.00;90.70;;;;;;5015156;28;20033;-43
2023/12/03 11:07:20;;;;;;;10.85;6.88;;;14.00;90.60;;;;;;5015712;28;20057;-44
2023/12/03 11:09:49;;;;;;;10.25;6.90;;;14.00;90.50;;;;;;5015753;28;20479;-41
2023/12/03 11:12:17;;;;;;;10.93;6.85;;;14.10;90.90;;;;;;5015555;28;20026;-43
2023/12/03 11:14:43;;;;;;;10.77;6.68;;;14.10;90.40;;;;;;5015510;28;20468;-43
2023/12/03 11:17:25;;;;;;;9.88;6.50;;;14.20;90.40;;;;;;5015209;28;20030;-43
2023/12/03 11:19:54;;;;;;;9.02;6.57;;;14.20;90.40;;;;;;5014293;28;20033;-43
2023/12/03 11:22:56;;;;;;;9.43;6.55;;;14.20;90.30;;;;;;5015404;28;20049;-43
2023/12/03 11:25:33;;;;;;;9.52;6.13;;;14.30;90.30;;;;;;5014652;28;20057;-43
2023/12/03 11:27:59;;;;;;;8.38;5.93;;;14.30;90.30;;;;;;5015619;28;20022;-43
2023/12/03 11:30:43;;;;;;;8.82;6.22;;;14.40;90.20;;;;;;5015171;28;20383;-43
2023/12/03 11:33:13;;;;;;;8.63;6.20;;;14.40;90.20;;;;;;5014642;28;20476;-43
2023/12/03 11:35:40;;;;;;;9.60;6.28;;;14.50;90.10;;;;;;5013763;28;20080;-43
2023/12/03 11:38:30;;;;;;;9.68;6.50;;;14.50;90.10;;;;;;5012530;28;20038;-44
2023/12/03 11:40:56;;;;;;;8.60;6.25;;;14.50;90.30;;;;;;5015838;28;20044;-43
2023/12/03 11:43:26;;;;;;;7.80;5.80;;;14.50;90.00;;;;;;5013903;28;20029;-43
2023/12/03 11:45:52;;;;;;;8.40;5.80;;;14.60;90.00;;;;;;5013653;28;20073;-43
2023/12/03 11:48:19;;;;;;;9.35;5.82;;;14.60;89.80;;;;;;5013601;28;20412;-43
2023/12/03 11:50:47;;;;;;;9.25;6.35;;;14.60;89.70;;;;;;5013601;28;20484;-43
2023/12/03 11:53:15;;;;;;;7.75;5.60;;;14.70;89.60;;;;;;5012358;28;20033;-43
2023/12/03 11:55:44;;;;;;;8.32;5.75;;;14.70;89.40;;;;;;5013543;28;20105;-43
2023/12/03 11:58:10;;;;;;;8.65;5.90;;;14.70;89.20;;;;;;5013506;28;20108;-43
2023/12/03 12:00:38;;;;;;;12.45;6.10;;;14.70;89.10;;;;;;5013292;28;20492;-43
2023/12/03 12:03:04;;;;;;;8.05;6.05;;;14.80;89.00;;;;;;5013484;28;20026;-44
2023/12/03 12:05:31;;;;;;;7.82;5.88;;;14.80;86.30;;;;;;5013279;28;20026;-44
2023/12/03 12:08:03;;;;;;;7.80;5.57;;;14.80;83.80;;;;;;5013578;28;20361;-44
2023/12/03 12:10:31;;;;;;;8.65;6.18;;;14.70;83.20;;;;;;5013286;28;20018;-44
2023/12/03 12:13:01;;;;;;;8.73;5.70;;;14.70;84.10;;;;;;5011993;28;20372;-44
2023/12/03 12:15:26;;;;;;;8.50;5.60;;;14.70;83.50;;;;;;5013101;28;20037;-44
2023/12/03 12:17:52;;;;;;;7.50;5.30;;;14.70;83.80;;;;;;5013293;28;20033;-44
2023/12/03 12:20:25;;;;;;;7.90;5.28;;;14.70;84.00;;;;;;5013266;28;20041;-44
2023/12/03 12:22:54;;;;;;;7.50;5.80;;;14.70;84.40;;;;;;5013126;28;20056;-44
2023/12/03 12:25:21;;;;;;;6.13;4.75;;;14.80;84.60;;;;;;5012695;28;20105;-44
2023/12/03 12:27:48;;;;;;;7.38;5.28;;;14.80;84.90;;;;;;5013033;28;20431;-44
2023/12/03 12:30:16;;;;;;;6.57;5.45;;;14.80;85.00;;;;;;5012956;28;20026;-44
2023/12/03 12:32:42;;;;;;;5.88;4.65;;;14.80;85.20;;;;;;5011614;28;20038;-44
2023/12/03 12:35:10;;;;;;;6.50;4.93;;;14.90;85.40;;;;;;5013324;28;20030;-44
2023/12/03 12:37:37;;;;;;;6.32;4.65;;;14.90;85.50;;;;;;5012676;28;20025;-44
2023/12/03 12:40:09;;;;;;;5.43;4.50;;;14.90;85.70;;;;;;5012905;28;20022;-44